Time;durP1;ratioP1;P1;durP2;ratioP2;P2;SDS_P1;SDS_P2;PMS_P1;PMS_P2;Temp;Humidity;BMP_temperature;BMP_pressure;BME280_temperature;BME280_humidity;BME280_pressure;Samples;Min_cycle;Max_cycle;Signal;HPM_P1;HPM_P2
2022/10/29 00:01:09;;;;;;;15.73;10.00;;;;;;;13.75;100.00;102097.88;5039972;28;20025;-73
2022/10/29 00:03:35;;;;;;;15.52;8.57;;;;;;;13.76;100.00;102093.47;5046753;28;20032;-74
2022/10/29 00:06:03;;;;;;;16.13;8.43;;;;;;;13.80;100.00;102098.34;5034305;28;20029;-75
2022/10/29 00:08:30;;;;;;;16.98;9.00;;;;;;;13.80;99.81;102084.50;5031604;28;20044;-74
2022/10/29 00:11:08;;;;;;;12.95;8.07;;;;;;;13.78;100.00;102081.19;5031787;28;20118;-74
2022/10/29 00:13:34;;;;;;;11.20;7.32;;;;;;;13.79;99.82;102078.44;5028595;28;20065;-76
2022/10/29 00:16:16;;;;;;;9.98;7.63;;;;;;;13.71;99.71;102065.16;5029025;28;20026;-74
2022/10/29 00:18:42;;;;;;;8.85;6.03;;;;;;;13.70;98.85;102073.91;5034929;28;20322;-73
2022/10/29 00:21:11;;;;;;;10.13;5.85;;;;;;;13.63;98.83;102067.50;5030577;28;20064;-73
2022/10/29 00:23:37;;;;;;;9.52;6.30;;;;;;;13.61;98.94;102069.41;5036009;28;20025;-73
2022/10/29 00:26:02;;;;;;;12.63;8.38;;;;;;;13.51;99.13;102064.03;5046149;28;20741;-73
2022/10/29 00:28:29;;;;;;;10.15;6.75;;;;;;;13.64;99.63;102063.94;5038330;28;20079;-73
2022/10/29 00:30:55;;;;;;;10.25;7.60;;;;;;;13.62;100.00;102065.03;5016631;28;20417;-73
2022/10/29 00:33:20;;;;;;;10.18;6.57;;;;;;;13.63;99.69;102066.66;5020391;28;20056;-73
2022/10/29 00:35:57;;;;;;;14.07;8.10;;;;;;;13.55;99.80;102069.88;5035477;28;20029;-73
2022/10/29 00:38:24;;;;;;;10.23;4.97;;;;;;;13.54;98.90;102068.22;5044006;28;20472;-75
2022/10/29 00:40:49;;;;;;;10.50;5.93;;;;;;;13.42;99.13;102062.13;5064102;28;20481;-73
2022/10/29 00:43:17;;;;;;;10.73;6.35;;;;;;;13.43;99.14;102078.59;5029181;28;20115;-73
2022/10/29 00:45:51;;;;;;;15.38;8.88;;;;;;;13.39;99.80;102066.72;5026921;28;20030;-74
2022/10/29 00:48:17;;;;;;;14.07;8.23;;;;;;;13.46;99.73;102075.75;5036798;28;20029;-73
2022/10/29 00:50:44;;;;;;;14.30;10.68;;;;;;;13.41;100.00;102077.84;5043130;28;20317;-73
2022/10/29 00:53:10;;;;;;;14.10;7.22;;;;;;;13.51;100.00;102069.25;5028215;28;20026;-74
2022/10/29 00:55:35;;;;;;;14.40;8.73;;;;;;;13.51;100.00;102073.63;5028692;28;20116;-77
2022/10/29 00:58:01;;;;;;;13.13;7.18;;;;;;;13.51;100.00;102074.47;5029512;28;20071;-73
2022/10/29 01:00:26;;;;;;;11.95;9.05;;;;;;;13.47;100.00;102072.19;5015370;28;20030;-73
2022/10/29 01:02:52;;;;;;;12.52;7.60;;;;;;;13.50;100.00;102061.56;5027549;28;20078;-73
2022/10/29 01:05:22;;;;;;;11.45;7.65;;;;;;;13.50;100.00;102074.59;5010078;28;20366;-74
2022/10/29 01:07:47;;;;;;;11.35;6.53;;;;;;;13.48;100.00;102064.28;5037618;28;20086;-74
2022/10/29 01:10:15;;;;;;;11.52;6.55;;;;;;;13.50;100.00;102066.75;5042108;28;20350;-73
2022/10/29 01:12:43;;;;;;;11.10;6.60;;;;;;;13.51;100.00;102073.63;5025596;28;20033;-74
2022/10/29 01:15:22;;;;;;;9.88;7.63;;;;;;;13.45;100.00;102063.66;5044671;28;20033;-73
2022/10/29 01:18:03;;;;;;;9.55;6.85;;;;;;;13.43;100.00;102065.56;5019287;28;20025;-74
2022/10/29 01:20:56;;;;;;;11.15;8.38;;;;;;;13.35;100.00;102047.03;5036655;28;20033;-73
2022/10/29 01:23:45;;;;;;;9.35;5.07;;;;;;;13.42;100.00;102059.53;5032878;28;20033;-73
2022/10/29 01:26:38;;;;;;;9.80;6.65;;;;;;;13.40;100.00;102052.75;5037628;28;20024;-73
2022/10/29 01:29:19;;;;;;;12.18;6.82;;;;;;;13.38;100.00;102057.25;5045866;28;20068;-74
2022/10/29 01:31:47;;;;;;;9.68;5.38;;;;;;;13.36;99.71;102053.91;5037282;28;20079;-73
2022/10/29 01:34:24;;;;;;;10.65;6.95;;;;;;;13.23;100.00;102060.03;5027656;28;20324;-73
2022/10/29 01:37:02;;;;;;;9.32;6.03;;;;;;;13.27;99.79;102043.22;5038535;28;20048;-73
2022/10/29 01:39:40;;;;;;;10.05;6.18;;;;;;;13.31;99.45;102045.63;5045209;28;20444;-73
2022/10/29 01:42:10;;;;;;;15.88;8.10;;;;;;;13.28;100.00;102044.88;5049253;28;20052;-73
2022/10/29 01:44:52;;;;;;;11.68;8.00;;;;;;;13.23;100.00;102047.00;5033936;28;20361;-74
2022/10/29 01:47:20;;;;;;;11.85;6.57;;;;;;;13.28;100.00;102039.69;5019144;28;20049;-75
2022/10/29 01:49:58;;;;;;;9.85;6.63;;;;;;;13.26;100.00;102027.72;5043403;28;20033;-73
2022/10/29 01:52:26;;;;;;;12.50;6.72;;;;;;;13.23;99.82;102023.53;5028803;28;20170;-73
2022/10/29 01:54:52;;;;;;;10.60;6.60;;;;;;;13.17;100.00;102018.75;5025678;28;20048;-74
2022/10/29 01:57:37;;;;;;;13.13;7.88;;;;;;;13.18;99.88;102012.59;5044706;28;20047;-74
2022/10/29 02:00:02;;;;;;;9.65;5.97;;;;;;;13.15;99.71;102010.25;5040657;28;20101;-73
2022/10/29 02:03:05;;;;;;;9.35;6.18;;;;;;;13.14;99.87;102012.97;5040654;28;20619;-76
2022/10/29 02:05:59;;;;;;;10.30;5.78;;;;;;;13.09;99.68;102002.88;5006011;28;20378;-73
2022/10/29 02:09:05;;;;;;;12.75;6.78;;;;;;;13.06;99.94;101990.06;4996147;28;20534;-73
2022/10/29 02:11:43;;;;;;;10.10;6.82;;;;;;;13.06;100.00;101997.03;4972465;28;20049;-73
2022/10/29 02:14:42;;;;;;;8.57;5.30;;;;;;;13.05;99.71;101993.63;5061979;23;20060;-73
2022/10/29 02:17:07;;;;;;;10.27;5.75;;;;;;;12.98;99.57;101988.03;5035204;28;20271;-77
2022/10/29 02:19:34;;;;;;;9.05;5.35;;;;;;;12.92;99.91;101982.44;5064827;28;20037;-73
2022/10/29 02:21:59;;;;;;;7.93;5.28;;;;;;;12.93;99.58;101989.31;5065880;28;20043;-73
2022/10/29 02:24:24;;;;;;;10.00;5.55;;;;;;;12.92;99.64;101995.47;5064193;28;20703;-73
2022/10/29 02:26:50;;;;;;;11.00;6.00;;;;;;;12.95;99.69;102003.03;5064951;28;20476;-74
2022/10/29 02:29:16;;;;;;;9.65;6.13;;;;;;;12.87;99.27;102010.59;5046115;28;20024;-76
2022/10/29 02:31:41;;;;;;;11.20;6.35;;;;;;;12.85;99.07;102008.09;5065470;28;20119;-74
2022/10/29 02:34:07;;;;;;;12.10;6.25;;;;;;;12.85;99.43;101996.84;5066426;28;20469;-74
2022/10/29 02:36:32;;;;;;;13.80;7.72;;;;;;;12.82;100.00;101997.06;5064205;28;20119;-74
2022/10/29 02:38:58;;;;;;;12.30;7.10;;;;;;;12.85;100.00;101995.09;5065178;28;20114;-73
2022/10/29 02:41:23;;;;;;;9.25;6.60;;;;;;;12.80;100.00;101991.16;5064209;28;20032;-73
2022/10/29 02:43:48;;;;;;;13.27;6.55;;;;;;;12.75;100.00;101981.06;5046592;28;20027;-73
2022/10/29 02:46:17;;;;;;;11.23;6.78;;;;;;;12.73;100.00;101978.56;5052435;28;20115;-75
2022/10/29 02:48:42;;;;;;;11.13;6.95;;;;;;;12.60;100.00;101956.13;5060236;28;20394;-73
2022/10/29 02:51:08;;;;;;;11.50;7.03;;;;;;;12.57;100.00;101970.22;5028149;28;20044;-74
2022/10/29 02:53:33;;;;;;;14.27;6.90;;;;;;;12.66;100.00;101977.34;5057945;28;20024;-75
2022/10/29 02:55:59;;;;;;;13.98;7.45;;;;;;;12.66;100.00;101972.13;5064961;28;20384;-74
2022/10/29 02:58:24;;;;;;;11.25;7.13;;;;;;;12.64;100.00;101968.81;5064469;28;20032;-77
2022/10/29 03:00:50;;;;;;;12.82;7.55;;;;;;;12.55;100.00;101953.84;5064436;28;20434;-73
2022/10/29 03:03:15;;;;;;;13.02;7.15;;;;;;;12.59;99.95;101965.72;5057051;28;20036;-76
2022/10/29 03:05:41;;;;;;;10.75;6.32;;;;;;;12.57;100.00;101962.41;5064621;28;20066;-74
2022/10/29 03:08:06;;;;;;;11.65;7.07;;;;;;;12.51;100.00;101962.84;5064324;28;20037;-73
2022/10/29 03:10:31;;;;;;;15.88;7.85;;;;;;;12.47;100.00;101956.19;5065057;28;20048;-73
2022/10/29 03:12:58;;;;;;;11.95;7.53;;;;;;;12.53;100.00;101966.16;5065101;28;20106;-74
2022/10/29 03:15:23;;;;;;;14.65;8.07;;;;;;;12.51;100.00;101962.84;5064189;28;20028;-73
2022/10/29 03:17:48;;;;;;;16.40;8.20;;;;;;;12.57;100.00;101972.81;5064698;28;20059;-74
2022/10/29 03:20:14;;;;;;;12.75;7.82;;;;;;;12.58;100.00;101958.84;5051348;28;20470;-77
2022/10/29 03:22:39;;;;;;;12.95;7.78;;;;;;;12.60;100.00;101956.97;5064260;28;20029;-73
2022/10/29 03:25:05;;;;;;;12.65;8.32;;;;;;;12.58;100.00;101948.44;5033606;28;20419;-73
2022/10/29 03:27:30;;;;;;;14.05;8.25;;;;;;;12.61;100.00;101958.63;5041160;28;20033;-73
2022/10/29 03:29:56;;;;;;;16.08;9.68;;;;;;;12.55;100.00;101953.84;5063583;28;20029;-76
2022/10/29 03:32:21;;;;;;;13.85;8.70;;;;;;;12.57;100.00;101957.19;5060054;28;20025;-74
2022/10/29 03:34:46;;;;;;;13.82;8.38;;;;;;;12.59;100.00;101955.31;5045669;28;20388;-74
2022/10/29 03:37:11;;;;;;;14.82;8.88;;;;;;;12.58;100.00;101952.81;5063757;28;20472;-73
2022/10/29 03:39:37;;;;;;;11.60;7.63;;;;;;;12.57;100.00;101952.00;5063553;28;20346;-75
2022/10/29 03:42:02;;;;;;;11.63;7.30;;;;;;;12.62;100.00;101955.09;5065907;28;20380;-73
2022/10/29 03:44:28;;;;;;;15.93;7.50;;;;;;;12.57;100.00;101952.00;5063611;28;20036;-74
2022/10/29 03:46:53;;;;;;;12.82;9.00;;;;;;;12.55;100.00;101948.66;5064255;28;20012;-74
2022/10/29 03:49:19;;;;;;;11.02;7.72;;;;;;;12.55;100.00;101953.84;5063894;28;20031;-74
2022/10/29 03:51:44;;;;;;;14.75;8.48;;;;;;;12.60;100.00;101961.34;5064875;28;20491;-74
2022/10/29 03:54:09;;;;;;;14.32;9.30;;;;;;;12.59;100.00;101960.50;5059228;28;20760;-77
2022/10/29 03:56:35;;;;;;;17.15;8.85;;;;;;;12.62;100.00;101952.50;5063260;28;20475;-77
2022/10/29 03:59:00;;;;;;;13.00;8.93;;;;;;;12.60;100.00;101956.97;5064428;28;20098;-77
2022/10/29 04:01:25;;;;;;;15.63;8.75;;;;;;;12.57;100.00;101957.19;5063899;28;20016;-74
2022/10/29 04:03:51;;;;;;;11.02;8.00;;;;;;;12.57;100.00;101952.00;5063566;28;20532;-73
2022/10/29 04:06:17;;;;;;;14.13;7.80;;;;;;;12.52;100.00;101954.09;5044287;28;20071;-73
2022/10/29 04:08:42;;;;;;;12.00;7.80;;;;;;;12.49;100.00;101955.13;5044595;28;20056;-73
2022/10/29 04:11:10;;;;;;;11.98;8.02;;;;;;;12.49;100.00;101960.31;5064634;28;20138;-73
2022/10/29 04:13:35;;;;;;;14.02;8.48;;;;;;;12.43;100.00;101944.31;5071000;28;20052;-73
2022/10/29 04:16:01;;;;;;;12.95;8.07;;;;;;;12.46;100.00;101942.34;5071596;28;20029;-74
2022/10/29 04:18:26;;;;;;;12.80;7.78;;;;;;;12.48;100.00;101944.81;5065112;28;20020;-73
2022/10/29 04:20:52;;;;;;;12.63;8.35;;;;;;;12.43;100.00;101939.13;5063124;28;20043;-74
2022/10/29 04:23:18;;;;;;;14.52;8.57;;;;;;;12.45;100.00;101927.69;5063720;28;20024;-74
2022/10/29 04:25:56;;;;;;;14.65;9.18;;;;;;;12.43;100.00;101915.72;5057113;28;20037;-73
2022/10/29 04:28:22;;;;;;;17.27;10.48;;;;;;;12.46;100.00;101907.69;5058140;28;20055;-74
2022/10/29 04:30:47;;;;;;;18.00;9.70;;;;;;;12.47;100.00;101904.16;5063448;28;20536;-73
2022/10/29 04:33:12;;;;;;;17.08;9.77;;;;;;;12.45;100.00;101912.06;5067525;28;20078;-74
2022/10/29 04:35:38;;;;;;;14.27;9.05;;;;;;;12.46;100.00;101925.91;5069382;28;20122;-73
2022/10/29 04:38:11;;;;;;;16.40;10.05;;;;;;;12.41;100.00;101915.00;5044409;28;20066;-73
2022/10/29 04:40:36;;;;;;;15.15;9.77;;;;;;;12.38;100.00;101905.63;5050724;28;20034;-74
2022/10/29 04:43:01;;;;;;;13.18;9.45;;;;;;;12.42;100.00;101921.84;5048585;28;20028;-73
2022/10/29 04:45:27;;;;;;;16.42;11.07;;;;;;;12.42;100.00;101916.66;5045602;28;20036;-74
2022/10/29 04:48:02;;;;;;;16.30;10.98;;;;;;;12.39;100.00;101903.88;5068419;28;20040;-73
2022/10/29 04:50:29;;;;;;;17.88;10.38;;;;;;;12.44;100.00;101909.56;5050617;28;20029;-74
2022/10/29 04:53:03;;;;;;;17.13;10.52;;;;;;;12.45;100.00;101919.03;5073265;28;20031;-75
2022/10/29 04:55:29;;;;;;;19.13;11.45;;;;;;;12.42;100.00;101914.06;5062705;28;20110;-73
2022/10/29 04:57:54;;;;;;;15.52;10.23;;;;;;;12.43;100.00;101908.72;5070800;28;20028;-74
2022/10/29 05:00:21;;;;;;;17.65;10.82;;;;;;;12.40;100.00;101908.13;5072394;28;20028;-74
2022/10/29 05:02:48;;;;;;;15.15;11.18;;;;;;;12.42;100.00;101911.44;5067424;28;20059;-74
2022/10/29 05:05:14;;;;;;;18.70;10.80;;;;;;;12.40;100.00;101908.13;5067341;28;20066;-77
2022/10/29 05:07:40;;;;;;;17.15;10.00;;;;;;;12.41;100.00;101904.59;5066530;28;20149;-73
2022/10/29 05:10:05;;;;;;;15.65;11.48;;;;;;;12.39;100.00;101901.28;5067393;28;20472;-73
2022/10/29 05:12:31;;;;;;;15.90;10.35;;;;;;;12.35;100.00;101899.81;5045117;28;20033;-74
2022/10/29 05:14:56;;;;;;;17.98;13.00;;;;;;;12.39;100.00;101907.31;5052572;28;20044;-74
2022/10/29 05:17:21;;;;;;;19.70;12.43;;;;;;;12.44;100.00;101904.34;5069771;28;20072;-73
2022/10/29 05:19:47;;;;;;;20.35;11.30;;;;;;;12.44;100.00;101899.16;5061042;28;20064;-73
2022/10/29 05:22:12;;;;;;;19.90;11.07;;;;;;;12.43;100.00;101895.72;5066427;28;20473;-73
2022/10/29 05:24:37;;;;;;;20.35;11.98;;;;;;;12.41;100.00;101894.19;5039464;28;20063;-74
2022/10/29 05:27:05;;;;;;;19.55;11.30;;;;;;;12.41;100.00;101897.59;5067632;28;20059;-75
2022/10/29 05:29:30;;;;;;;22.23;11.85;;;;;;;12.35;100.00;101890.25;5065658;28;20078;-73
2022/10/29 05:31:55;;;;;;;19.65;11.63;;;;;;;12.38;100.00;101894.38;5065435;28;20060;-73
2022/10/29 05:34:21;;;;;;;20.15;11.73;;;;;;;12.38;100.00;101890.00;5067139;28;20036;-73
2022/10/29 05:36:46;;;;;;;16.52;11.07;;;;;;;12.42;100.00;101895.84;5067128;28;20464;-74
2022/10/29 05:39:11;;;;;;;17.00;11.88;;;;;;;12.40;100.00;101885.53;5066703;28;20368;-74
2022/10/29 05:41:36;;;;;;;15.07;11.18;;;;;;;12.38;100.00;101884.81;5047066;28;20032;-73
2022/10/29 05:44:02;;;;;;;14.45;9.20;;;;;;;12.41;100.00;101889.81;5068038;28;20354;-73
2022/10/29 05:46:27;;;;;;;15.70;10.27;;;;;;;12.40;100.00;101892.53;5065375;28;20044;-73
2022/10/29 05:48:53;;;;;;;14.13;10.05;;;;;;;12.41;100.00;101892.41;5066032;28;20039;-73
2022/10/29 05:51:18;;;;;;;17.17;10.45;;;;;;;12.39;100.00;101880.47;5066813;28;20460;-73
2022/10/29 05:53:43;;;;;;;17.23;10.05;;;;;;;12.38;100.00;101883.97;5046903;28;20025;-75
2022/10/29 05:56:09;;;;;;;20.35;11.68;;;;;;;12.40;100.00;101882.13;5065402;28;20101;-73
2022/10/29 05:58:34;;;;;;;16.13;11.73;;;;;;;12.39;100.00;101880.47;5065579;28;20031;-74
2022/10/29 06:00:59;;;;;;;18.48;12.35;;;;;;;12.39;100.00;101881.28;5067433;28;20032;-74
2022/10/29 06:03:25;;;;;;;19.13;12.20;;;;;;;12.36;100.00;101865.88;5067750;28;20020;-74
2022/10/29 06:05:50;;;;;;;20.60;12.18;;;;;;;12.41;100.00;101860.34;5045143;28;20032;-74
2022/10/29 06:08:16;;;;;;;19.50;12.90;;;;;;;12.44;100.00;101862.72;5065651;28;20131;-74
2022/10/29 06:10:42;;;;;;;19.42;12.85;;;;;;;12.47;100.00;101862.50;5067132;28;20028;-74
2022/10/29 06:13:18;;;;;;;21.63;13.18;;;;;;;12.48;100.00;101866.78;5066770;28;20392;-73
2022/10/29 06:15:44;;;;;;;19.85;12.77;;;;;;;12.48;100.00;101858.97;5061596;28;20027;-73
2022/10/29 06:18:10;;;;;;;24.27;14.07;;;;;;;12.48;100.00;101858.97;5065008;28;20021;-74
2022/10/29 06:20:37;;;;;;;22.67;13.57;;;;;;;12.49;100.00;101860.63;5064329;28;20028;-74
2022/10/29 06:23:02;;;;;;;21.90;12.65;;;;;;;12.50;100.00;101854.47;5065404;28;20107;-73
2022/10/29 06:25:27;;;;;;;26.25;13.73;;;;;;;12.53;100.00;101854.25;5064346;28;20465;-74
2022/10/29 06:28:01;;;;;;;21.80;14.02;;;;;;;12.53;100.00;101859.47;5064808;28;20028;-73
2022/10/29 06:30:27;;;;;;;19.63;13.48;;;;;;;12.55;100.00;101865.38;5065111;28;20017;-73
2022/10/29 06:32:52;;;;;;;22.10;12.57;;;;;;;12.51;100.00;101863.97;5072281;28;20162;-75
2022/10/29 06:35:18;;;;;;;19.67;12.88;;;;;;;12.54;100.00;101874.13;5064211;28;20107;-74
2022/10/29 06:37:43;;;;;;;25.42;13.88;;;;;;;12.54;100.00;101879.34;5046947;28;20038;-73
2022/10/29 06:40:09;;;;;;;21.02;13.77;;;;;;;12.56;100.00;101877.47;5063535;28;20029;-74
2022/10/29 06:42:34;;;;;;;20.52;13.13;;;;;;;12.58;100.00;101885.97;5045382;28;20039;-73
2022/10/29 06:44:59;;;;;;;23.85;13.30;;;;;;;12.60;100.00;101884.09;5064008;28;20024;-75
2022/10/29 06:47:25;;;;;;;23.33;13.45;;;;;;;12.58;100.00;101869.53;5064862;28;20056;-74
2022/10/29 06:49:50;;;;;;;23.40;12.68;;;;;;;12.57;100.00;101873.91;5043269;28;20516;-74
2022/10/29 06:52:15;;;;;;;21.60;12.75;;;;;;;12.59;100.00;101872.03;5063128;28;20512;-74
2022/10/29 06:54:40;;;;;;;21.95;12.63;;;;;;;12.64;100.00;101859.50;5064308;28;20024;-74
2022/10/29 06:57:06;;;;;;;19.65;12.57;;;;;;;12.66;100.00;101864.59;5065463;28;20071;-73
2022/10/29 06:59:31;;;;;;;22.98;13.30;;;;;;;12.68;100.00;101876.56;5064684;28;20436;-73
2022/10/29 07:01:56;;;;;;;24.48;13.63;;;;;;;12.67;100.00;101861.03;5063001;28;20039;-73
2022/10/29 07:04:22;;;;;;;22.85;11.65;;;;;;;12.73;100.00;101869.25;5063809;28;20047;-73
2022/10/29 07:06:47;;;;;;;24.33;14.05;;;;;;;12.77;100.00;101865.44;5064960;28;20035;-73
2022/10/29 07:09:12;;;;;;;23.38;17.77;;;;;;;12.75;100.00;101872.56;5063446;28;20032;-73
2022/10/29 07:11:38;;;;;;;20.58;13.27;;;;;;;12.83;100.00;101878.97;5062937;28;20051;-74
2022/10/29 07:14:04;;;;;;;23.08;14.30;;;;;;;12.83;100.00;101878.97;5062193;28;20044;-74
2022/10/29 07:16:30;;;;;;;29.02;17.35;;;;;;;12.87;100.00;101880.41;5063455;28;20480;-73
2022/10/29 07:18:56;;;;;;;25.73;13.57;;;;;;;12.91;100.00;101879.25;5072051;28;20029;-73
2022/10/29 07:21:21;;;;;;;24.10;14.82;;;;;;;12.89;100.00;101874.13;5064022;28;20039;-73
2022/10/29 07:23:47;;;;;;;24.27;15.00;;;;;;;12.95;100.00;101872.84;5064786;28;20027;-74
2022/10/29 07:26:12;;;;;;;22.50;15.48;;;;;;;12.92;100.00;101863.50;5064539;28;20024;-74
2022/10/29 07:28:37;;;;;;;24.27;15.63;;;;;;;12.98;100.00;101862.19;5063060;28;20048;-74
2022/10/29 07:31:03;;;;;;;20.70;12.75;;;;;;;13.01;100.00;101861.94;5063632;28;20049;-74
2022/10/29 07:33:29;;;;;;;24.65;14.20;;;;;;;13.03;100.00;101867.91;5064078;28;20024;-74
2022/10/29 07:35:57;;;;;;;24.98;13.98;;;;;;;13.03;100.00;101865.28;5063482;28;20032;-74
2022/10/29 07:38:22;;;;;;;22.40;14.63;;;;;;;13.07;100.00;101861.50;5064078;28;20028;-74
2022/10/29 07:40:49;;;;;;;21.38;14.07;;;;;;;13.10;100.00;101866.47;5062246;28;20515;-74
2022/10/29 07:43:15;;;;;;;19.35;13.77;;;;;;;13.13;100.00;101853.25;5063982;28;20040;-75
2022/10/29 07:45:46;;;;;;;21.80;13.45;;;;;;;13.17;100.00;101861.63;5063138;28;20039;-73
2022/10/29 07:48:11;;;;;;;23.77;14.43;;;;;;;13.20;100.00;101870.06;5064171;28;20039;-74
2022/10/29 07:50:37;;;;;;;23.77;14.55;;;;;;;13.18;100.00;101861.50;5061474;28;20025;-74
2022/10/29 07:53:05;;;;;;;24.98;15.57;;;;;;;13.25;100.00;101872.34;5067460;28;20020;-73
2022/10/29 07:55:30;;;;;;;27.40;20.63;;;;;;;13.22;100.00;101860.38;5055403;28;20043;-73
2022/10/29 07:57:57;;;;;;;24.02;14.45;;;;;;;13.24;100.00;101855.84;5064063;28;20025;-74
2022/10/29 08:00:44;;;;;;;25.70;15.38;;;;;;;13.31;100.00;101863.25;5063709;28;20083;-73
2022/10/29 08:03:11;;;;;;;27.85;16.58;;;;;;;13.33;100.00;101863.94;5064150;28;20036;-74
2022/10/29 08:05:36;;;;;;;26.67;17.25;;;;;;;13.33;100.00;101856.13;5063508;28;20032;-74
2022/10/29 08:08:01;;;;;;;28.25;16.45;;;;;;;13.33;100.00;101848.31;5063751;28;20594;-77
2022/10/29 08:10:28;;;;;;;22.17;14.68;;;;;;;13.42;100.00;101861.47;5070500;28;20044;-73
2022/10/29 08:12:56;;;;;;;24.15;15.45;;;;;;;13.46;100.00;101856.81;5074086;28;20040;-75
2022/10/29 08:15:22;;;;;;;30.75;21.20;;;;;;;13.51;100.00;101839.06;5067746;28;20056;-73
2022/10/29 08:17:49;;;;;;;27.13;17.42;;;;;;;13.56;100.00;101836.91;5067264;28;20028;-73
2022/10/29 08:20:15;;;;;;;22.05;15.32;;;;;;;13.64;100.00;101831.09;5067642;28;20040;-73
2022/10/29 08:22:40;;;;;;;28.98;17.13;;;;;;;13.70;100.00;101835.84;5067469;28;20025;-73
2022/10/29 08:25:07;;;;;;;28.05;20.77;;;;;;;13.72;100.00;101826.13;5061333;28;20367;-73
2022/10/29 08:27:32;;;;;;;27.55;19.35;;;;;;;13.80;100.00;101824.56;5066686;28;20359;-73
2022/10/29 08:29:57;;;;;;;28.30;17.80;;;;;;;13.90;100.00;101834.28;5067350;28;20016;-73
2022/10/29 08:32:23;;;;;;;32.00;25.40;;;;;;;13.96;100.00;101834.59;5064512;28;20112;-73
2022/10/29 08:34:48;;;;;;;28.10;22.35;;;;;;;14.03;100.00;101840.16;5067225;28;20021;-73
2022/10/29 08:37:13;;;;;;;27.75;21.08;;;;;;;14.09;100.00;101829.22;5078565;28;20030;-73
2022/10/29 08:39:38;;;;;;;27.17;18.45;;;;;;;14.15;100.00;101823.50;5059877;28;20522;-73
2022/10/29 08:42:28;;;;;;;23.77;19.33;;;;;;;14.20;100.00;101826.59;5067185;28;20123;-74
2022/10/29 08:45:05;;;;;;;35.30;23.05;;;;;;;14.23;100.00;101821.13;5067342;28;20124;-74
2022/10/29 08:47:44;;;;;;;28.40;21.45;;;;;;;14.29;100.00;101831.06;5055216;28;20040;-73
2022/10/29 08:50:23;;;;;;;30.50;19.08;;;;;;;14.33;100.00;101836.84;5067286;28;20150;-75
2022/10/29 08:52:50;;;;;;;25.02;18.83;;;;;;;14.39;100.00;101840.75;5065962;28;20024;-74
2022/10/29 08:55:17;;;;;;;27.73;18.50;;;;;;;14.43;100.00;101842.16;5060329;28;20119;-74
2022/10/29 08:57:49;;;;;;;29.15;26.23;;;;;;;14.44;100.00;101828.16;5069434;28;20075;-76
2022/10/29 09:00:20;;;;;;;26.85;20.77;;;;;;;14.53;100.00;101828.25;5075735;28;20049;-75
2022/10/29 09:02:46;;;;;;;30.20;23.33;;;;;;;14.53;100.00;101827.44;5047638;28;20025;-73
2022/10/29 09:05:15;;;;;;;27.67;21.40;;;;;;;14.63;100.00;101827.50;5058330;28;20050;-74
2022/10/29 09:07:51;;;;;;;30.30;20.45;;;;;;;14.67;100.00;101816.66;5067233;28;20032;-74
2022/10/29 09:10:40;;;;;;;26.05;22.02;;;;;;;14.74;100.00;101824.84;5066822;28;20024;-73
2022/10/29 09:13:37;;;;;;;28.70;21.60;;;;;;;14.79;100.00;101823.47;5018280;28;20388;-73
2022/10/29 09:16:27;;;;;;;27.60;20.98;;;;;;;14.85;100.00;101823.00;5041340;28;20044;-74
2022/10/29 09:19:15;;;;;;;30.50;23.50;;;;;;;14.90;100.00;101825.19;5044500;28;20465;-74
2022/10/29 09:21:46;;;;;;;31.05;22.73;;;;;;;14.94;100.00;101817.94;5043953;28;20107;-74
2022/10/29 09:24:36;;;;;;;30.38;25.02;;;;;;;14.99;100.00;101813.97;5040667;28;20029;-74
2022/10/29 09:27:15;;;;;;;25.88;18.13;;;;;;;15.01;100.00;101800.78;5024430;28;20476;-73
2022/10/29 09:29:54;;;;;;;27.65;24.63;;;;;;;14.99;100.00;101798.31;5056829;28;20025;-74
2022/10/29 09:32:32;;;;;;;27.77;19.30;;;;;;;15.07;100.00;101800.25;5048588;28;20025;-73
2022/10/29 09:35:15;;;;;;;29.10;18.90;;;;;;;15.10;100.00;101800.00;5045110;28;20132;-74
2022/10/29 09:37:54;;;;;;;27.02;24.05;;;;;;;15.12;100.00;101803.31;5045061;28;20112;-73
2022/10/29 09:40:32;;;;;;;27.50;23.17;;;;;;;15.16;100.00;101799.47;5032243;28;20651;-74
2022/10/29 09:43:11;;;;;;;28.10;22.75;;;;;;;15.18;100.00;101797.56;5034045;28;20029;-74
2022/10/29 09:45:49;;;;;;;25.70;22.42;;;;;;;15.17;100.00;101795.91;5050750;28;20105;-73
2022/10/29 09:48:35;;;;;;;26.90;18.70;;;;;;;15.25;100.00;101793.44;5046496;28;20025;-76
2022/10/29 09:51:14;;;;;;;24.20;20.52;;;;;;;15.26;100.00;101805.59;5038988;28;20045;-73
2022/10/29 09:53:40;;;;;;;29.45;23.42;;;;;;;15.26;100.00;101776.84;5044319;28;20366;-75
2022/10/29 09:56:07;;;;;;;26.08;19.45;;;;;;;15.32;100.00;101778.91;5030385;28;20025;-74
2022/10/29 09:58:37;;;;;;;28.20;23.85;;;;;;;15.30;100.00;101775.59;5045676;28;20091;-74
2022/10/29 10:01:03;;;;;;;27.60;20.02;;;;;;;15.35;100.00;101789.09;5046114;28;20099;-74
2022/10/29 10:03:37;;;;;;;26.90;23.88;;;;;;;15.35;100.00;101788.25;5035711;28;20405;-74
2022/10/29 10:06:06;;;;;;;26.60;23.90;;;;;;;15.37;100.00;101787.19;5039943;28;20461;-75
2022/10/29 10:08:32;;;;;;;;;;;;;;;15.48;100.00;101782.78;5043256;28;20032;-74
2022/10/29 10:11:06;;;;;;;35.90;29.88;;;;;;;15.43;100.00;101785.00;5031151;28;19916;-74
2022/10/29 10:13:35;;;;;;;28.08;22.25;;;;;;;15.47;100.00;101781.16;5039316;28;20053;-75
2022/10/29 10:16:03;;;;;;;29.10;25.30;;;;;;;15.53;100.00;101770.16;5044134;28;20032;-73
2022/10/29 10:18:31;;;;;;;26.80;23.95;;;;;;;15.56;100.00;101775.94;5034567;28;20043;-74
2022/10/29 10:21:09;;;;;;;27.33;18.17;;;;;;;15.63;100.00;101781.50;5044526;28;20037;-74
2022/10/29 10:23:39;;;;;;;28.00;24.35;;;;;;;15.65;100.00;101784.78;5045081;28;20064;-76
2022/10/29 10:26:24;;;;;;;28.35;22.17;;;;;;;15.72;100.00;101775.47;5030959;28;20066;-75
2022/10/29 10:29:03;;;;;;;28.67;25.73;;;;;;;15.79;100.00;101780.97;5036774;28;20102;-73
2022/10/29 10:31:29;;;;;;;31.13;24.70;;;;;;;15.77;100.00;101768.03;5044953;28;20537;-73
2022/10/29 10:33:54;;;;;;;29.38;24.75;;;;;;;15.80;100.00;101762.53;5034630;28;20123;-73
2022/10/29 10:36:25;;;;;;;29.90;25.00;;;;;;;15.90;100.00;101779.06;5043073;28;20098;-73
2022/10/29 10:38:53;;;;;;;25.10;21.23;;;;;;;15.98;100.00;101769.69;5033756;28;20453;-76
2022/10/29 10:41:24;;;;;;;;;;;;;;;16.07;100.00;101761.03;5028754;28;20021;-74
2022/10/29 10:43:50;;;;;;;28.42;25.42;;;;;;;16.29;100.00;101757.31;5038913;28;19954;-78
2022/10/29 10:46:24;;;;;;;24.67;21.77;;;;;;;16.36;100.00;101753.97;5038017;28;20436;-74
2022/10/29 10:49:21;;;;;;;27.73;23.17;;;;;;;16.44;100.00;101754.09;5044497;28;20029;-74
2022/10/29 10:51:52;;;;;;;27.75;23.63;;;;;;;16.50;100.00;101738.78;5018193;28;20420;-73
2022/10/29 10:54:32;;;;;;;27.45;23.88;;;;;;;16.69;100.00;101749.22;5029016;28;20053;-73
2022/10/29 10:57:02;;;;;;;26.00;22.77;;;;;;;16.89;100.00;101761.31;5046925;28;20031;-75
2022/10/29 10:59:54;;;;;;;27.55;23.27;;;;;;;17.03;100.00;101756.56;5026926;28;20057;-73
2022/10/29 11:02:42;;;;;;;27.13;22.27;;;;;;;17.16;99.62;101757.91;4964117;28;20042;-73
2022/10/29 11:05:19;;;;;;;25.38;22.02;;;;;;;17.15;98.80;101739.69;4963157;28;20062;-74
2022/10/29 11:08:03;;;;;;;25.50;21.15;;;;;;;17.23;98.30;101737.16;4963391;28;20070;-74
2022/10/29 11:10:51;;;;;;;24.15;21.35;;;;;;;17.37;97.97;101744.53;4961107;28;20042;-74
2022/10/29 11:13:19;;;;;;;;;;;;;;;17.44;100.00;101745.59;4962899;28;20093;-73
2022/10/29 11:16:00;;;;;;;26.75;20.77;;;;;;;17.63;97.72;101733.31;4950946;28;20021;-74
2022/10/29 11:18:40;;;;;;;23.10;20.05;;;;;;;17.74;96.23;101741.00;4948998;28;20411;-74